N4MK KRDU-KJFK
Flight info
| Callsign | N4MK |
|---|---|
| Flight time | 1h 2m |
| Altitude | 370000 |
| Route | BEXGO5 BOUSY RIC TAPPA HYTRA CLASY SIE CAMRN5 |
| Aircraft | C700/M-VGDW/C |
Departure
| Time | 2026-05-07 00:37 |
|---|---|
| Airport | Raleigh-Durham International Airport (KRDU) |
Arrival
| Time | 2026-05-07 01:40 |
|---|---|
| Airport | John F. Kennedy International Airport (KJFK) |
| Time | Latitude | Longitude | Altitude | Speed | Heading |
|---|---|---|---|---|---|
| 2026-05-07 00:28 | 35.87986 | -78.78300 | 432 ft | 0 kts | 45° |
| 2026-05-07 00:35 | 35.87997 | -78.78243 | 433 ft | 14 kts | 116° |
| 2026-05-07 00:35 | 35.87985 | -78.78153 | 431 ft | 11 kts | 39° |
| 2026-05-07 00:35 | 35.88003 | -78.78079 | 429 ft | 4 kts | 113° |
| 2026-05-07 00:36 | 35.87981 | -78.78047 | 433 ft | 6 kts | 133° |
| 2026-05-07 00:36 | 35.87965 | -78.78027 | 437 ft | 0 kts | 135° |
| 2026-05-07 00:36 | 35.87938 | -78.78000 | 437 ft | 16 kts | 147° |
| 2026-05-07 00:37 | 35.87838 | -78.78042 | 425 ft | 44 kts | 226° |
| 2026-05-07 00:37 | 35.87360 | -78.78620 | 439 ft | 143 kts | 224° |
| 2026-05-07 00:37 | 35.86544 | -78.79564 | 1135 ft | 173 kts | 223° |
| 2026-05-07 00:37 | 35.85582 | -78.80581 | 2319 ft | 188 kts | 222° |
| 2026-05-07 00:38 | 35.84529 | -78.81659 | 3574 ft | 207 kts | 222° |
| 2026-05-07 00:38 | 35.83334 | -78.82816 | 4863 ft | 229 kts | 222° |
| 2026-05-07 00:38 | 35.81959 | -78.83994 | 6214 ft | 250 kts | 212° |
| 2026-05-07 00:38 | 35.80214 | -78.84382 | 7769 ft | 269 kts | 185° |
| 2026-05-07 00:39 | 35.78367 | -78.83654 | 9313 ft | 294 kts | 153° |
| 2026-05-07 00:39 | 35.76957 | -78.81735 | 10621 ft | 323 kts | 123° |
| 2026-05-07 00:39 | 35.76337 | -78.78940 | 11568 ft | 356 kts | 93° |
| 2026-05-07 00:39 | 35.76729 | -78.75754 | 12003 ft | 396 kts | 70° |
| 2026-05-07 00:40 | 35.77937 | -78.72649 | 12022 ft | 412 kts | 58° |
| 2026-05-07 00:40 | 35.79424 | -78.69587 | 12154 ft | 414 kts | 57° |
| 2026-05-07 00:40 | 35.80795 | -78.66565 | 14083 ft | 388 kts | 61° |
| 2026-05-07 00:40 | 35.81807 | -78.63597 | 16245 ft | 374 kts | 67° |
| 2026-05-07 00:41 | 35.82677 | -78.60530 | 17359 ft | 390 kts | 68° |
| 2026-05-07 00:41 | 35.83619 | -78.57365 | 18527 ft | 396 kts | 65° |
| 2026-05-07 00:41 | 35.84704 | -78.54183 | 19558 ft | 404 kts | 63° |
| 2026-05-07 00:41 | 35.85787 | -78.50990 | 20591 ft | 412 kts | 65° |
| 2026-05-07 00:42 | 35.86840 | -78.47655 | 21607 ft | 420 kts | 66° |
| 2026-05-07 00:42 | 35.87912 | -78.44245 | 22577 ft | 428 kts | 65° |
| 2026-05-07 00:42 | 35.89026 | -78.40831 | 23526 ft | 435 kts | 64° |
| 2026-05-07 00:42 | 35.90170 | -78.37328 | 24338 ft | 441 kts | 65° |
| 2026-05-07 00:43 | 35.91362 | -78.33854 | 25179 ft | 446 kts | 61° |
| 2026-05-07 00:43 | 35.92751 | -78.30399 | 26017 ft | 452 kts | 59° |
| 2026-05-07 00:43 | 35.94149 | -78.26861 | 26816 ft | 459 kts | 62° |
| 2026-05-07 00:43 | 35.95436 | -78.23257 | 27584 ft | 466 kts | 63° |
| 2026-05-07 00:44 | 35.96743 | -78.19593 | 28357 ft | 471 kts | 62° |
| 2026-05-07 00:44 | 35.98139 | -78.15904 | 29132 ft | 477 kts | 61° |
| 2026-05-07 00:44 | 35.99561 | -78.12165 | 29922 ft | 483 kts | 62° |
| 2026-05-07 00:44 | 36.00957 | -78.08358 | 30549 ft | 490 kts | 62° |
| 2026-05-07 00:45 | 36.02375 | -78.04461 | 30938 ft | 502 kts | 62° |
| 2026-05-07 00:45 | 36.03854 | -78.00484 | 30947 ft | 523 kts | 62° |
| 2026-05-07 00:45 | 36.05411 | -77.96312 | 30955 ft | 544 kts | 62° |
| 2026-05-07 00:45 | 36.06992 | -77.91999 | 30956 ft | 560 kts | 62° |
| 2026-05-07 00:46 | 36.10216 | -77.83185 | 30954 ft | 564 kts | 62° |
| 2026-05-07 00:46 | 36.13451 | -77.74386 | 30951 ft | 561 kts | 63° |
| 2026-05-07 00:47 | 36.16674 | -77.65551 | 30955 ft | 563 kts | 63° |
| 2026-05-07 00:47 | 36.19897 | -77.56718 | 30957 ft | 565 kts | 63° |
| 2026-05-07 00:48 | 36.23105 | -77.47878 | 30956 ft | 561 kts | 63° |
| 2026-05-07 00:48 | 36.24717 | -77.43442 | 31089 ft | 558 kts | 63° |
| 2026-05-07 00:48 | 36.26270 | -77.39133 | 32691 ft | 531 kts | 61° |
| 2026-05-07 00:49 | 36.27750 | -77.35024 | 33846 ft | 528 kts | 60° |
| 2026-05-07 00:49 | 36.29275 | -77.30864 | 34142 ft | 537 kts | 59° |
| 2026-05-07 00:49 | 36.31099 | -77.26828 | 34649 ft | 531 kts | 49° |
| 2026-05-07 00:49 | 36.33317 | -77.23184 | 35113 ft | 525 kts | 39° |
| 2026-05-07 00:50 | 36.35870 | -77.19975 | 35581 ft | 517 kts | 31° |
| 2026-05-07 00:50 | 36.38532 | -77.17025 | 36226 ft | 515 kts | 31° |
| 2026-05-07 00:50 | 36.41196 | -77.14029 | 36854 ft | 514 kts | 30° |
| 2026-05-07 00:50 | 36.43876 | -77.11021 | 36948 ft | 524 kts | 30° |
| 2026-05-07 00:51 | 36.46600 | -77.07989 | 36947 ft | 535 kts | 30° |
| 2026-05-07 00:51 | 36.49391 | -77.04856 | 36947 ft | 540 kts | 31° |
| 2026-05-07 00:51 | 36.54918 | -76.98607 | 36957 ft | 536 kts | 31° |
| 2026-05-07 00:52 | 36.60473 | -76.92377 | 36972 ft | 535 kts | 31° |
| 2026-05-07 00:52 | 36.65982 | -76.86146 | 36972 ft | 538 kts | 31° |
| 2026-05-07 00:53 | 36.71532 | -76.79877 | 36972 ft | 539 kts | 31° |
| 2026-05-07 00:53 | 36.77085 | -76.73573 | 36964 ft | 536 kts | 31° |
| 2026-05-07 00:54 | 36.82587 | -76.67334 | 36960 ft | 535 kts | 31° |
| 2026-05-07 00:54 | 36.88093 | -76.61067 | 36940 ft | 537 kts | 31° |
| 2026-05-07 00:55 | 36.93641 | -76.54741 | 36940 ft | 539 kts | 31° |
| 2026-05-07 00:55 | 36.99145 | -76.48448 | 36915 ft | 537 kts | 31° |
| 2026-05-07 00:56 | 37.04661 | -76.42133 | 36913 ft | 534 kts | 31° |
| 2026-05-07 00:56 | 37.10142 | -76.35851 | 36921 ft | 538 kts | 31° |
| 2026-05-07 00:57 | 37.15657 | -76.29505 | 36915 ft | 539 kts | 31° |
| 2026-05-07 00:57 | 37.21161 | -76.23163 | 36921 ft | 536 kts | 31° |
| 2026-05-07 00:58 | 37.26660 | -76.16819 | 36922 ft | 535 kts | 31° |
| 2026-05-07 00:58 | 37.32148 | -76.10469 | 36929 ft | 538 kts | 31° |
| 2026-05-07 00:59 | 37.40405 | -76.00890 | 36939 ft | 538 kts | 31° |
| 2026-05-07 01:00 | 37.45878 | -75.94523 | 36939 ft | 535 kts | 31° |
| 2026-05-07 01:00 | 37.51329 | -75.88185 | 36931 ft | 534 kts | 31° |
| 2026-05-07 01:00 | 37.54220 | -75.85294 | 36927 ft | 521 kts | 23° |
| 2026-05-07 01:01 | 37.57267 | -75.82881 | 36931 ft | 513 kts | 18° |
| 2026-05-07 01:01 | 37.63406 | -75.78292 | 36936 ft | 516 kts | 18° |
| 2026-05-07 01:02 | 37.69573 | -75.73656 | 36937 ft | 515 kts | 18° |
| 2026-05-07 01:02 | 37.75708 | -75.69048 | 36932 ft | 514 kts | 18° |
| 2026-05-07 01:03 | 37.81860 | -75.64410 | 36926 ft | 512 kts | 18° |
| 2026-05-07 01:03 | 37.87865 | -75.59448 | 36934 ft | 522 kts | 22° |
| 2026-05-07 01:04 | 37.93887 | -75.54236 | 36933 ft | 524 kts | 22° |
| 2026-05-07 01:04 | 37.99866 | -75.49003 | 36703 ft | 517 kts | 22° |
| 2026-05-07 01:04 | 38.02777 | -75.46439 | 36370 ft | 499 kts | 22° |
| 2026-05-07 01:05 | 38.05614 | -75.43976 | 36034 ft | 480 kts | 20° |
| 2026-05-07 01:05 | 38.08358 | -75.41754 | 35699 ft | 468 kts | 19° |
| 2026-05-07 01:05 | 38.11121 | -75.39551 | 35371 ft | 471 kts | 19° |
| 2026-05-07 01:05 | 38.13950 | -75.37266 | 35043 ft | 486 kts | 20° |
| 2026-05-07 01:06 | 38.16772 | -75.34929 | 34913 ft | 488 kts | 21° |
| 2026-05-07 01:06 | 38.22479 | -75.30406 | 34917 ft | 477 kts | 14° |
| 2026-05-07 01:06 | 38.25491 | -75.28711 | 34919 ft | 466 kts | 7° |
| 2026-05-07 01:07 | 38.28533 | -75.27511 | 34922 ft | 456 kts | 0° |
| 2026-05-07 01:07 | 38.31627 | -75.26754 | 34925 ft | 445 kts | 355° |
| 2026-05-07 01:07 | 38.34695 | -75.26131 | 34920 ft | 444 kts | 355° |
| 2026-05-07 01:08 | 38.40759 | -75.24834 | 34920 ft | 443 kts | 355° |
| 2026-05-07 01:08 | 38.46862 | -75.23564 | 34919 ft | 447 kts | 355° |
| 2026-05-07 01:09 | 38.53008 | -75.22262 | 34911 ft | 448 kts | 355° |
| 2026-05-07 01:09 | 38.59157 | -75.20974 | 34912 ft | 445 kts | 355° |
| 2026-05-07 01:10 | 38.65261 | -75.19630 | 34912 ft | 452 kts | 359° |
| 2026-05-07 01:10 | 38.68340 | -75.18469 | 34914 ft | 467 kts | 6° |
| 2026-05-07 01:10 | 38.71348 | -75.16833 | 34899 ft | 482 kts | 13° |
| 2026-05-07 01:10 | 38.74334 | -75.14649 | 34348 ft | 504 kts | 22° |
| 2026-05-07 01:11 | 38.77181 | -75.11947 | 33667 ft | 510 kts | 27° |
| 2026-05-07 01:11 | 38.79992 | -75.09147 | 32979 ft | 506 kts | 27° |
| 2026-05-07 01:11 | 38.82758 | -75.06439 | 32321 ft | 502 kts | 26° |
| 2026-05-07 01:11 | 38.85547 | -75.03735 | 31667 ft | 505 kts | 27° |
| 2026-05-07 01:12 | 38.88375 | -75.00962 | 30996 ft | 511 kts | 27° |
| 2026-05-07 01:12 | 38.91179 | -74.98185 | 30323 ft | 515 kts | 28° |
| 2026-05-07 01:12 | 38.94011 | -74.95384 | 29606 ft | 515 kts | 28° |
| 2026-05-07 01:12 | 38.96852 | -74.92588 | 28917 ft | 512 kts | 28° |
| 2026-05-07 01:13 | 38.99684 | -74.89800 | 28237 ft | 512 kts | 28° |
| 2026-05-07 01:13 | 39.02534 | -74.86987 | 27557 ft | 514 kts | 28° |
| 2026-05-07 01:13 | 39.05350 | -74.84199 | 26883 ft | 516 kts | 28° |
| 2026-05-07 01:13 | 39.08219 | -74.81356 | 26190 ft | 518 kts | 29° |
| 2026-05-07 01:14 | 39.11034 | -74.78467 | 25511 ft | 521 kts | 32° |
| 2026-05-07 01:14 | 39.12880 | -74.76463 | 25054 ft | 521 kts | 32° |
| 2026-05-07 01:14 | 39.16558 | -74.72456 | 24136 ft | 520 kts | 32° |
| 2026-05-07 01:14 | 39.18444 | -74.70431 | 23670 ft | 519 kts | 32° |
| 2026-05-07 01:15 | 39.22085 | -74.66518 | 22712 ft | 512 kts | 32° |
| 2026-05-07 01:15 | 39.23889 | -74.64555 | 22258 ft | 507 kts | 33° |
| 2026-05-07 01:15 | 39.26584 | -74.61620 | 21590 ft | 500 kts | 33° |
| 2026-05-07 01:15 | 39.29213 | -74.58776 | 20945 ft | 494 kts | 33° |
| 2026-05-07 01:16 | 39.31846 | -74.55927 | 20293 ft | 488 kts | 33° |
| 2026-05-07 01:16 | 39.34409 | -74.53136 | 19656 ft | 478 kts | 34° |
| 2026-05-07 01:16 | 39.36895 | -74.50416 | 19040 ft | 454 kts | 34° |
| 2026-05-07 01:16 | 39.39265 | -74.47833 | 18451 ft | 433 kts | 33° |
| 2026-05-07 01:17 | 39.41534 | -74.45377 | 17918 ft | 423 kts | 33° |
| 2026-05-07 01:17 | 39.43820 | -74.42907 | 17899 ft | 446 kts | 34° |
| 2026-05-07 01:17 | 39.46233 | -74.40279 | 17899 ft | 453 kts | 34° |
| 2026-05-07 01:17 | 39.48612 | -74.37647 | 17907 ft | 455 kts | 34° |
| 2026-05-07 01:18 | 39.51054 | -74.34974 | 17900 ft | 457 kts | 34° |
| 2026-05-07 01:18 | 39.53488 | -74.32323 | 17901 ft | 454 kts | 34° |
| 2026-05-07 01:18 | 39.55886 | -74.29697 | 17929 ft | 455 kts | 34° |
| 2026-05-07 01:18 | 39.58305 | -74.27037 | 18013 ft | 456 kts | 34° |
| 2026-05-07 01:19 | 39.60723 | -74.24384 | 18017 ft | 458 kts | 34° |
| 2026-05-07 01:19 | 39.63159 | -74.21706 | 18019 ft | 456 kts | 34° |
| 2026-05-07 01:19 | 39.65554 | -74.19072 | 18018 ft | 455 kts | 34° |
| 2026-05-07 01:19 | 39.67990 | -74.16392 | 18020 ft | 456 kts | 34° |
| 2026-05-07 01:20 | 39.70394 | -74.13744 | 18018 ft | 457 kts | 35° |
| 2026-05-07 01:20 | 39.72830 | -74.11054 | 18023 ft | 457 kts | 35° |
| 2026-05-07 01:20 | 39.75245 | -74.08387 | 18025 ft | 458 kts | 35° |
| 2026-05-07 01:20 | 39.77690 | -74.05686 | 18026 ft | 459 kts | 35° |
| 2026-05-07 01:21 | 39.80129 | -74.02987 | 18023 ft | 458 kts | 35° |
| 2026-05-07 01:21 | 39.82530 | -74.00326 | 18021 ft | 450 kts | 35° |
| 2026-05-07 01:21 | 39.84961 | -73.98010 | 18004 ft | 424 kts | 25° |
| 2026-05-07 01:21 | 39.87537 | -73.96171 | 18005 ft | 422 kts | 21° |
| 2026-05-07 01:22 | 39.90147 | -73.94335 | 18006 ft | 423 kts | 22° |
| 2026-05-07 01:22 | 39.92714 | -73.92496 | 17982 ft | 420 kts | 22° |
| 2026-05-07 01:22 | 39.95213 | -73.90711 | 16829 ft | 412 kts | 22° |
| 2026-05-07 01:22 | 39.97759 | -73.88929 | 15737 ft | 406 kts | 22° |
| 2026-05-07 01:23 | 40.00112 | -73.87248 | 14471 ft | 377 kts | 22° |
| 2026-05-07 01:23 | 40.02334 | -73.85517 | 12985 ft | 355 kts | 30° |
| 2026-05-07 01:23 | 40.04214 | -73.83610 | 11389 ft | 343 kts | 33° |
| 2026-05-07 01:23 | 40.06115 | -73.81717 | 11006 ft | 332 kts | 32° |
| 2026-05-07 01:24 | 40.07895 | -73.79950 | 10997 ft | 319 kts | 32° |
| 2026-05-07 01:24 | 40.09705 | -73.78152 | 10995 ft | 330 kts | 32° |
| 2026-05-07 01:24 | 40.11526 | -73.76329 | 10997 ft | 332 kts | 32° |
| 2026-05-07 01:24 | 40.13350 | -73.74492 | 10998 ft | 331 kts | 32° |
| 2026-05-07 01:25 | 40.15181 | -73.72658 | 10996 ft | 330 kts | 32° |
| 2026-05-07 01:25 | 40.17014 | -73.70824 | 11006 ft | 330 kts | 32° |
| 2026-05-07 01:25 | 40.18843 | -73.69045 | 11007 ft | 331 kts | 29° |
| 2026-05-07 01:25 | 40.20780 | -73.67328 | 10632 ft | 338 kts | 27° |
| 2026-05-07 01:26 | 40.22704 | -73.65662 | 10141 ft | 331 kts | 27° |
| 2026-05-07 01:26 | 40.24610 | -73.64013 | 9617 ft | 323 kts | 27° |
| 2026-05-07 01:26 | 40.26466 | -73.62402 | 9021 ft | 315 kts | 27° |
| 2026-05-07 01:26 | 40.28292 | -73.60820 | 8435 ft | 312 kts | 27° |
| 2026-05-07 01:27 | 40.30085 | -73.59278 | 7866 ft | 310 kts | 27° |
| 2026-05-07 01:27 | 40.31883 | -73.57743 | 7303 ft | 307 kts | 27° |
| 2026-05-07 01:27 | 40.33679 | -73.56220 | 6748 ft | 305 kts | 27° |
| 2026-05-07 01:27 | 40.35439 | -73.54740 | 6205 ft | 302 kts | 27° |
| 2026-05-07 01:28 | 40.37212 | -73.53266 | 5624 ft | 299 kts | 27° |
| 2026-05-07 01:28 | 40.38976 | -73.51818 | 5054 ft | 297 kts | 27° |
| 2026-05-07 01:28 | 40.40763 | -73.50572 | 4476 ft | 289 kts | 13° |
| 2026-05-07 01:28 | 40.42717 | -73.50155 | 4013 ft | 276 kts | 359° |
| 2026-05-07 01:29 | 40.44586 | -73.49994 | 4002 ft | 266 kts | 358° |
| 2026-05-07 01:29 | 40.46442 | -73.49855 | 3999 ft | 273 kts | 357° |
| 2026-05-07 01:29 | 40.48373 | -73.49719 | 3998 ft | 275 kts | 357° |
| 2026-05-07 01:29 | 40.50263 | -73.49585 | 3988 ft | 274 kts | 357° |
| 2026-05-07 01:30 | 40.52177 | -73.49452 | 3994 ft | 274 kts | 357° |
| 2026-05-07 01:30 | 40.54071 | -73.49319 | 4002 ft | 273 kts | 357° |
| 2026-05-07 01:30 | 40.55926 | -73.49184 | 3999 ft | 257 kts | 357° |
| 2026-05-07 01:30 | 40.57684 | -73.49048 | 3713 ft | 252 kts | 357° |
| 2026-05-07 01:31 | 40.59424 | -73.48914 | 3247 ft | 254 kts | 357° |
| 2026-05-07 01:31 | 40.61201 | -73.48784 | 2767 ft | 255 kts | 357° |
| 2026-05-07 01:31 | 40.62981 | -73.48659 | 2290 ft | 255 kts | 357° |
| 2026-05-07 01:31 | 40.64724 | -73.48537 | 2000 ft | 248 kts | 357° |
| 2026-05-07 01:32 | 40.66396 | -73.48402 | 1993 ft | 231 kts | 357° |
| 2026-05-07 01:32 | 40.67947 | -73.48258 | 1986 ft | 221 kts | 357° |
| 2026-05-07 01:32 | 40.69490 | -73.48123 | 1990 ft | 223 kts | 357° |
| 2026-05-07 01:32 | 40.71057 | -73.47967 | 1989 ft | 225 kts | 358° |
| 2026-05-07 01:33 | 40.72613 | -73.47853 | 1987 ft | 223 kts | 351° |
| 2026-05-07 01:33 | 40.73986 | -73.48516 | 1993 ft | 205 kts | 313° |
| 2026-05-07 01:33 | 40.74838 | -73.49960 | 1993 ft | 197 kts | 297° |
| 2026-05-07 01:33 | 40.75573 | -73.51459 | 1992 ft | 197 kts | 298° |
| 2026-05-07 01:34 | 40.76317 | -73.52990 | 1993 ft | 197 kts | 297° |
| 2026-05-07 01:34 | 40.77044 | -73.54499 | 1991 ft | 197 kts | 297° |
| 2026-05-07 01:34 | 40.77784 | -73.56040 | 1995 ft | 198 kts | 297° |
| 2026-05-07 01:34 | 40.78516 | -73.57569 | 1992 ft | 198 kts | 297° |
| 2026-05-07 01:35 | 40.78926 | -73.59239 | 1982 ft | 190 kts | 266° |
| 2026-05-07 01:35 | 40.78440 | -73.60822 | 1985 ft | 186 kts | 238° |
| 2026-05-07 01:35 | 40.77719 | -73.62161 | 1981 ft | 175 kts | 238° |
| 2026-05-07 01:35 | 40.77035 | -73.63439 | 1982 ft | 165 kts | 238° |
| 2026-05-07 01:36 | 40.76369 | -73.64635 | 1986 ft | 159 kts | 237° |
| 2026-05-07 01:36 | 40.75723 | -73.65794 | 1987 ft | 159 kts | 237° |
| 2026-05-07 01:36 | 40.75005 | -73.66950 | 1986 ft | 165 kts | 231° |
| 2026-05-07 01:36 | 40.74081 | -73.67887 | 1987 ft | 169 kts | 218° |
| 2026-05-07 01:37 | 40.73102 | -73.68724 | 1956 ft | 167 kts | 218° |
| 2026-05-07 01:37 | 40.72110 | -73.69534 | 1755 ft | 171 kts | 216° |
| 2026-05-07 01:37 | 40.71110 | -73.70291 | 1530 ft | 157 kts | 216° |
| 2026-05-07 01:37 | 40.70219 | -73.71020 | 1318 ft | 145 kts | 216° |
| 2026-05-07 01:38 | 40.69386 | -73.71650 | 1135 ft | 137 kts | 214° |
| 2026-05-07 01:38 | 40.68495 | -73.72374 | 953 ft | 149 kts | 215° |
| 2026-05-07 01:38 | 40.67631 | -73.73041 | 748 ft | 139 kts | 211° |
| 2026-05-07 01:38 | 40.66881 | -73.73629 | 589 ft | 115 kts | 213° |
| 2026-05-07 01:39 | 40.66217 | -73.74149 | 430 ft | 112 kts | 209° |
| 2026-05-07 01:39 | 40.65511 | -73.74703 | 316 ft | 124 kts | 212° |
| 2026-05-07 01:39 | 40.64771 | -73.75298 | 132 ft | 120 kts | 210° |
| 2026-05-07 01:39 | 40.64091 | -73.75828 | 31 ft | 108 kts | 211° |
| 2026-05-07 01:40 | 40.63525 | -73.76273 | 18 ft | 73 kts | 208° |
| 2026-05-07 01:40 | 40.63181 | -73.76537 | 17 ft | 44 kts | 210° |
| 2026-05-07 01:40 | 40.62989 | -73.76757 | 17 ft | 18 kts | 236° |
| 2026-05-07 01:40 | 40.62923 | -73.76917 | 15 ft | 21 kts | 256° |
| 2026-05-07 01:41 | 40.62977 | -73.77080 | 15 ft | 21 kts | 301° |
| 2026-05-07 01:41 | 40.63062 | -73.77259 | 15 ft | 25 kts | 298° |
| 2026-05-07 01:41 | 40.63181 | -73.77521 | 16 ft | 33 kts | 302° |
| 2026-05-07 01:41 | 40.63307 | -73.77828 | 17 ft | 40 kts | 306° |